createdAt,value
2023-03-21T00:02:34.150Z,96.33
2023-03-21T00:12:58.428Z,96.56
2023-03-21T00:23:19.831Z,96.09
2023-03-21T00:33:41.234Z,95.87
2023-03-21T00:44:04.062Z,96.12
2023-03-21T00:54:25.990Z,96.12
2023-03-21T01:04:47.372Z,96.53
2023-03-21T01:15:08.968Z,97.12
2023-03-21T01:25:30.340Z,97.72
2023-03-21T01:35:57.617Z,97.17
2023-03-21T01:46:30.206Z,97.92
2023-03-21T01:56:54.815Z,97.50
2023-03-21T02:07:18.018Z,97.03
2023-03-21T02:17:45.186Z,97.86
2023-03-21T02:28:23.499Z,96.93
2023-03-21T02:38:53.008Z,98.10
2023-03-21T02:49:38.305Z,98.00
2023-03-21T03:00:07.426Z,97.82
2023-03-21T03:10:41.680Z,97.41
2023-03-21T03:21:11.260Z,98.02
2023-03-21T03:31:38.041Z,98.99
2023-03-21T03:42:12.622Z,99.03
2023-03-21T03:52:55.260Z,98.10
2023-03-21T04:03:18.645Z,99.18
2023-03-21T04:13:40.194Z,99.40
2023-03-21T04:24:01.607Z,98.27
2023-03-21T04:34:24.041Z,99.50
2023-03-21T04:44:46.270Z,98.96
2023-03-21T04:55:10.079Z,99.02
2023-03-21T05:05:31.685Z,99.02
2023-03-21T05:15:53.048Z,97.45
2023-03-21T05:26:14.454Z,97.95
2023-03-21T05:36:36.134Z,99.06
2023-03-21T05:46:57.513Z,99.04
2023-03-21T05:57:19.202Z,97.84
2023-03-21T06:07:40.796Z,97.72
2023-03-21T06:18:03.325Z,97.92
2023-03-21T06:28:24.688Z,96.56
2023-03-21T06:38:46.940Z,97.16
2023-03-21T06:49:09.130Z,97.23
2023-03-21T06:59:31.164Z,98.06
2023-03-21T07:09:52.576Z,99.21
2023-03-21T07:20:14.291Z,97.53
2023-03-21T07:30:36.832Z,97.34
2023-03-21T07:40:58.809Z,97.79
2023-03-21T07:51:20.330Z,97.96
2023-03-21T08:01:41.827Z,97.56
2023-03-21T08:12:04.170Z,97.21
2023-03-21T08:22:25.678Z,95.41
2023-03-21T08:32:47.336Z,95.19
2023-03-21T08:43:08.965Z,96.95
2023-03-21T08:53:30.381Z,95.64
2023-03-21T09:03:51.806Z,96.88
2023-03-21T09:14:13.259Z,96.81
2023-03-21T09:24:34.717Z,95.93
2023-03-21T09:34:57.480Z,97.31
2023-03-21T09:45:21.240Z,96.30
2023-03-21T09:55:46.955Z,96.23
2023-03-21T10:06:15.275Z,98.49
2023-03-21T10:16:48.640Z,97.46
2023-03-21T10:27:13.161Z,96.27
2023-03-21T10:37:36.274Z,96.21
2023-03-21T10:47:58.202Z,95.59
2023-03-21T10:58:27.193Z,98.74
2023-03-21T11:08:55.835Z,95.94
2023-03-21T11:19:18.864Z,94.75
2023-03-21T11:29:41.299Z,94.96
2023-03-21T11:40:23.558Z,93.68
2023-03-21T11:50:47.315Z,95.16
2023-03-21T12:01:10.081Z,94.97
2023-03-21T12:11:31.468Z,93.86
2023-03-21T12:21:56.062Z,95.56
2023-03-21T12:32:36.258Z,94.88
2023-03-21T12:43:07.743Z,94.58
2023-03-21T12:53:36.073Z,95.76
2023-03-21T13:04:17.937Z,94.63
2023-03-21T13:14:44.294Z,94.13
2023-03-21T13:25:07.544Z,95.02
2023-03-21T13:35:38.422Z,93.80
2023-03-21T13:46:50.394Z,92.44
2023-03-21T13:57:34.460Z,92.85
2023-03-21T14:08:06.036Z,94.58
2023-03-21T14:18:53.610Z,92.20
2023-03-21T14:29:26.750Z,92.47
2023-03-21T14:39:57.262Z,91.69
2023-03-21T14:50:19.545Z,93.00
2023-03-21T15:00:41.187Z,92.13
2023-03-21T15:11:08.309Z,92.45
2023-03-21T15:21:32.169Z,92.59
2023-03-21T15:31:53.666Z,91.79
2023-03-21T15:42:33.830Z,90.29
2023-03-21T15:52:56.160Z,91.48
2023-03-21T16:03:20.829Z,90.35
2023-03-21T16:13:42.290Z,89.92
2023-03-21T16:24:04.561Z,89.23
2023-03-21T16:34:27.055Z,88.74
2023-03-21T16:44:48.443Z,88.44
2023-03-21T16:55:09.852Z,88.46
2023-03-21T17:05:31.317Z,88.88
2023-03-21T17:15:52.703Z,88.08
2023-03-21T17:26:34.330Z,87.53
2023-03-21T17:36:55.734Z,88.02
2023-03-21T17:47:17.254Z,88.90
2023-03-21T17:57:38.912Z,87.87
2023-03-21T18:08:15.676Z,87.79
2023-03-21T18:18:38.031Z,88.01
2023-03-21T18:39:42.457Z,88.14
2023-03-21T18:50:16.255Z,88.01
2023-03-21T19:00:38.014Z,87.80
2023-03-21T19:11:03.271Z,87.18
2023-03-21T19:21:27.351Z,88.27
2023-03-21T19:31:51.001Z,88.07
2023-03-21T19:42:17.009Z,88.72
2023-03-21T19:52:39.002Z,89.62
2023-03-21T20:03:00.517Z,89.62
2023-03-21T20:13:21.936Z,89.62
2023-03-21T20:23:44.052Z,90.62
2023-03-21T20:34:05.445Z,90.90
2023-03-21T20:44:57.154Z,90.10
2023-03-21T20:55:11.326Z,91.44
2023-03-21T21:05:34.905Z,90.58
2023-03-21T21:15:56.511Z,89.38
2023-03-21T21:26:17.937Z,89.25
2023-03-21T21:36:39.342Z,88.79
2023-03-21T21:47:04.124Z,88.34
2023-03-21T21:57:25.526Z,87.22
2023-03-21T22:07:47.666Z,87.83
2023-03-21T22:18:10.100Z,87.71
2023-03-21T22:28:31.492Z,87.43
2023-03-21T22:38:52.867Z,87.13
2023-03-21T22:49:14.273Z,88.32
2023-03-21T22:59:35.741Z,87.71
2023-03-21T23:09:57.193Z,87.80
2023-03-21T23:20:18.626Z,88.23
2023-03-21T23:30:40.595Z,89.00
2023-03-21T23:41:06.358Z,89.17
2023-03-21T23:51:27.769Z,88.84
